sensor_id;sensor_type;location;lat;lon;timestamp;P1;durP1;ratioP1;P2;durP2;ratioP2
11933;SDS011;6026;48.784;9.198;2023-06-22T00:01:49;0.70;;;0.70;;
11933;SDS011;6026;48.784;9.198;2023-06-22T00:04:15;0.90;;;0.90;;
11933;SDS011;6026;48.784;9.198;2023-06-22T00:06:41;0.70;;;0.70;;
11933;SDS011;6026;48.784;9.198;2023-06-22T00:09:06;0.60;;;0.60;;
11933;SDS011;6026;48.784;9.198;2023-06-22T00:11:35;0.60;;;0.60;;
11933;SDS011;6026;48.784;9.198;2023-06-22T00:14:04;0.70;;;0.70;;
11933;SDS011;6026;48.784;9.198;2023-06-22T00:16:31;0.60;;;0.60;;
11933;SDS011;6026;48.784;9.198;2023-06-22T00:18:57;0.60;;;0.60;;
11933;SDS011;6026;48.784;9.198;2023-06-22T00:21:25;0.80;;;0.80;;
11933;SDS011;6026;48.784;9.198;2023-06-22T00:23:52;0.80;;;0.80;;
11933;SDS011;6026;48.784;9.198;2023-06-22T00:26:18;0.83;;;0.83;;
11933;SDS011;6026;48.784;9.198;2023-06-22T00:28:43;0.70;;;0.70;;
11933;SDS011;6026;48.784;9.198;2023-06-22T00:31:09;0.60;;;0.60;;
11933;SDS011;6026;48.784;9.198;2023-06-22T00:33:35;0.80;;;0.80;;
11933;SDS011;6026;48.784;9.198;2023-06-22T00:36:00;0.77;;;0.77;;
11933;SDS011;6026;48.784;9.198;2023-06-22T00:38:28;0.60;;;0.60;;
11933;SDS011;6026;48.784;9.198;2023-06-22T00:40:53;0.90;;;0.90;;
11933;SDS011;6026;48.784;9.198;2023-06-22T00:43:19;0.80;;;0.80;;
11933;SDS011;6026;48.784;9.198;2023-06-22T00:45:45;0.70;;;0.70;;
11933;SDS011;6026;48.784;9.198;2023-06-22T00:48:11;0.60;;;0.60;;
11933;SDS011;6026;48.784;9.198;2023-06-22T00:50:38;0.70;;;0.70;;
11933;SDS011;6026;48.784;9.198;2023-06-22T00:53:06;0.83;;;0.83;;
11933;SDS011;6026;48.784;9.198;2023-06-22T00:55:36;0.60;;;0.60;;
11933;SDS011;6026;48.784;9.198;2023-06-22T00:58:08;0.83;;;0.83;;
11933;SDS011;6026;48.784;9.198;2023-06-22T01:00:35;0.70;;;0.70;;
11933;SDS011;6026;48.784;9.198;2023-06-22T01:03:02;0.67;;;0.67;;
11933;SDS011;6026;48.784;9.198;2023-06-22T01:05:29;0.77;;;0.77;;
11933;SDS011;6026;48.784;9.198;2023-06-22T01:08:12;0.80;;;0.80;;
11933;SDS011;6026;48.784;9.198;2023-06-22T01:11:01;0.90;;;0.90;;
11933;SDS011;6026;48.784;9.198;2023-06-22T01:13:37;0.80;;;0.80;;
11933;SDS011;6026;48.784;9.198;2023-06-22T01:16:23;0.80;;;0.80;;
11933;SDS011;6026;48.784;9.198;2023-06-22T01:18:53;0.80;;;0.80;;
11933;SDS011;6026;48.784;9.198;2023-06-22T01:21:22;0.63;;;0.63;;
11933;SDS011;6026;48.784;9.198;2023-06-22T01:24:02;0.80;;;0.80;;
11933;SDS011;6026;48.784;9.198;2023-06-22T01:29:18;0.70;;;0.70;;
11933;SDS011;6026;48.784;9.198;2023-06-22T01:31:46;0.80;;;0.80;;
11933;SDS011;6026;48.784;9.198;2023-06-22T01:34:13;0.70;;;0.70;;
11933;SDS011;6026;48.784;9.198;2023-06-22T01:36:40;0.80;;;0.80;;
11933;SDS011;6026;48.784;9.198;2023-06-22T01:39:06;1.00;;;1.00;;
11933;SDS011;6026;48.784;9.198;2023-06-22T01:41:35;0.80;;;0.80;;
11933;SDS011;6026;48.784;9.198;2023-06-22T01:44:04;0.53;;;0.53;;
11933;SDS011;6026;48.784;9.198;2023-06-22T01:46:32;0.60;;;0.60;;
11933;SDS011;6026;48.784;9.198;2023-06-22T01:48:59;0.70;;;0.70;;
11933;SDS011;6026;48.784;9.198;2023-06-22T01:51:24;0.70;;;0.70;;
11933;SDS011;6026;48.784;9.198;2023-06-22T01:53:50;0.70;;;0.70;;
11933;SDS011;6026;48.784;9.198;2023-06-22T01:56:16;0.90;;;0.90;;
11933;SDS011;6026;48.784;9.198;2023-06-22T01:58:46;0.90;;;0.90;;
11933;SDS011;6026;48.784;9.198;2023-06-22T02:01:20;0.73;;;0.73;;
11933;SDS011;6026;48.784;9.198;2023-06-22T02:04:09;0.70;;;0.70;;
11933;SDS011;6026;48.784;9.198;2023-06-22T02:06:39;0.60;;;0.60;;
11933;SDS011;6026;48.784;9.198;2023-06-22T02:09:11;0.70;;;0.70;;
11933;SDS011;6026;48.784;9.198;2023-06-22T02:11:40;0.53;;;0.53;;
11933;SDS011;6026;48.784;9.198;2023-06-22T02:14:07;0.80;;;0.80;;
11933;SDS011;6026;48.784;9.198;2023-06-22T02:16:34;0.83;;;0.83;;
11933;SDS011;6026;48.784;9.198;2023-06-22T02:19:01;0.90;;;0.90;;
11933;SDS011;6026;48.784;9.198;2023-06-22T02:21:31;0.70;;;0.70;;
11933;SDS011;6026;48.784;9.198;2023-06-22T02:23:57;0.63;;;0.63;;
11933;SDS011;6026;48.784;9.198;2023-06-22T02:26:24;0.57;;;0.57;;
11933;SDS011;6026;48.784;9.198;2023-06-22T02:28:51;0.60;;;0.60;;
11933;SDS011;6026;48.784;9.198;2023-06-22T02:31:17;0.70;;;0.70;;
11933;SDS011;6026;48.784;9.198;2023-06-22T02:33:43;0.80;;;0.80;;
11933;SDS011;6026;48.784;9.198;2023-06-22T02:36:09;0.60;;;0.60;;
11933;SDS011;6026;48.784;9.198;2023-06-22T02:38:38;0.90;;;0.90;;
11933;SDS011;6026;48.784;9.198;2023-06-22T02:41:13;0.63;;;0.63;;
11933;SDS011;6026;48.784;9.198;2023-06-22T02:43:43;0.90;;;0.90;;
11933;SDS011;6026;48.784;9.198;2023-06-22T02:46:12;0.70;;;0.70;;
11933;SDS011;6026;48.784;9.198;2023-06-22T02:48:41;0.80;;;0.80;;
11933;SDS011;6026;48.784;9.198;2023-06-22T02:51:07;0.80;;;0.80;;
11933;SDS011;6026;48.784;9.198;2023-06-22T02:53:33;0.80;;;0.80;;
11933;SDS011;6026;48.784;9.198;2023-06-22T02:55:59;0.80;;;0.80;;
11933;SDS011;6026;48.784;9.198;2023-06-22T02:58:26;0.63;;;0.63;;
11933;SDS011;6026;48.784;9.198;2023-06-22T03:00:52;0.60;;;0.60;;
11933;SDS011;6026;48.784;9.198;2023-06-22T03:03:18;0.87;;;0.87;;
11933;SDS011;6026;48.784;9.198;2023-06-22T03:05:44;0.70;;;0.70;;
11933;SDS011;6026;48.784;9.198;2023-06-22T03:08:10;0.90;;;0.90;;
11933;SDS011;6026;48.784;9.198;2023-06-22T03:10:35;0.70;;;0.70;;
11933;SDS011;6026;48.784;9.198;2023-06-22T03:13:01;0.60;;;0.60;;
11933;SDS011;6026;48.784;9.198;2023-06-22T03:15:27;0.77;;;0.77;;
11933;SDS011;6026;48.784;9.198;2023-06-22T03:17:54;0.70;;;0.70;;
11933;SDS011;6026;48.784;9.198;2023-06-22T03:20:20;0.80;;;0.80;;
11933;SDS011;6026;48.784;9.198;2023-06-22T03:22:46;0.70;;;0.70;;
11933;SDS011;6026;48.784;9.198;2023-06-22T03:25:13;1.00;;;1.00;;
11933;SDS011;6026;48.784;9.198;2023-06-22T03:27:39;0.80;;;0.80;;
11933;SDS011;6026;48.784;9.198;2023-06-22T03:30:06;0.80;;;0.80;;
11933;SDS011;6026;48.784;9.198;2023-06-22T03:32:33;1.00;;;1.00;;
11933;SDS011;6026;48.784;9.198;2023-06-22T03:34:59;0.70;;;0.70;;
11933;SDS011;6026;48.784;9.198;2023-06-22T03:37:25;0.80;;;0.80;;
11933;SDS011;6026;48.784;9.198;2023-06-22T03:39:51;0.70;;;0.70;;
11933;SDS011;6026;48.784;9.198;2023-06-22T03:42:17;0.70;;;0.70;;
11933;SDS011;6026;48.784;9.198;2023-06-22T03:44:43;0.60;;;0.60;;
11933;SDS011;6026;48.784;9.198;2023-06-22T03:47:09;0.70;;;0.70;;
11933;SDS011;6026;48.784;9.198;2023-06-22T03:49:34;0.50;;;0.50;;
11933;SDS011;6026;48.784;9.198;2023-06-22T03:52:00;0.80;;;0.80;;
11933;SDS011;6026;48.784;9.198;2023-06-22T03:54:28;0.60;;;0.60;;
11933;SDS011;6026;48.784;9.198;2023-06-22T03:56:54;0.80;;;0.80;;
11933;SDS011;6026;48.784;9.198;2023-06-22T03:59:20;0.80;;;0.80;;
11933;SDS011;6026;48.784;9.198;2023-06-22T04:01:45;0.70;;;0.70;;
11933;SDS011;6026;48.784;9.198;2023-06-22T04:04:11;0.90;;;0.90;;
11933;SDS011;6026;48.784;9.198;2023-06-22T04:06:37;0.70;;;0.70;;
11933;SDS011;6026;48.784;9.198;2023-06-22T04:09:03;1.03;;;1.03;;
11933;SDS011;6026;48.784;9.198;2023-06-22T04:11:28;0.70;;;0.70;;
11933;SDS011;6026;48.784;9.198;2023-06-22T04:13:54;0.70;;;0.70;;
11933;SDS011;6026;48.784;9.198;2023-06-22T04:16:20;1.10;;;1.10;;
11933;SDS011;6026;48.784;9.198;2023-06-22T04:18:46;0.70;;;0.70;;
11933;SDS011;6026;48.784;9.198;2023-06-22T04:21:11;0.90;;;0.90;;
11933;SDS011;6026;48.784;9.198;2023-06-22T04:23:38;0.67;;;0.67;;
11933;SDS011;6026;48.784;9.198;2023-06-22T04:26:03;0.60;;;0.60;;
11933;SDS011;6026;48.784;9.198;2023-06-22T04:28:29;0.90;;;0.90;;
11933;SDS011;6026;48.784;9.198;2023-06-22T04:30:59;0.57;;;0.57;;
11933;SDS011;6026;48.784;9.198;2023-06-22T04:33:28;0.70;;;0.70;;
11933;SDS011;6026;48.784;9.198;2023-06-22T04:35:57;0.70;;;0.70;;
11933;SDS011;6026;48.784;9.198;2023-06-22T04:38:23;0.77;;;0.77;;
11933;SDS011;6026;48.784;9.198;2023-06-22T04:40:49;0.70;;;0.70;;
11933;SDS011;6026;48.784;9.198;2023-06-22T04:43:15;0.70;;;0.70;;
11933;SDS011;6026;48.784;9.198;2023-06-22T04:45:41;0.70;;;0.70;;
11933;SDS011;6026;48.784;9.198;2023-06-22T04:48:07;0.70;;;0.70;;
11933;SDS011;6026;48.784;9.198;2023-06-22T04:50:34;0.80;;;0.80;;
11933;SDS011;6026;48.784;9.198;2023-06-22T04:53:02;0.87;;;0.87;;
11933;SDS011;6026;48.784;9.198;2023-06-22T04:55:30;0.80;;;0.80;;
11933;SDS011;6026;48.784;9.198;2023-06-22T04:57:58;0.70;;;0.70;;
11933;SDS011;6026;48.784;9.198;2023-06-22T05:00:29;0.60;;;0.60;;
11933;SDS011;6026;48.784;9.198;2023-06-22T05:02:55;0.70;;;0.70;;
11933;SDS011;6026;48.784;9.198;2023-06-22T05:05:22;0.63;;;0.63;;
11933;SDS011;6026;48.784;9.198;2023-06-22T05:07:50;0.80;;;0.80;;
11933;SDS011;6026;48.784;9.198;2023-06-22T05:10:18;0.70;;;0.70;;
11933;SDS011;6026;48.784;9.198;2023-06-22T05:12:44;0.70;;;0.70;;
11933;SDS011;6026;48.784;9.198;2023-06-22T05:15:10;0.87;;;0.87;;
11933;SDS011;6026;48.784;9.198;2023-06-22T05:17:36;0.70;;;0.70;;
11933;SDS011;6026;48.784;9.198;2023-06-22T05:20:07;0.70;;;0.70;;
11933;SDS011;6026;48.784;9.198;2023-06-22T05:22:34;0.70;;;0.70;;
11933;SDS011;6026;48.784;9.198;2023-06-22T05:24:59;0.70;;;0.70;;
11933;SDS011;6026;48.784;9.198;2023-06-22T05:27:25;0.70;;;0.70;;
11933;SDS011;6026;48.784;9.198;2023-06-22T05:29:51;0.70;;;0.70;;
11933;SDS011;6026;48.784;9.198;2023-06-22T05:32:16;0.90;;;0.90;;
11933;SDS011;6026;48.784;9.198;2023-06-22T05:34:42;0.70;;;0.70;;
11933;SDS011;6026;48.784;9.198;2023-06-22T05:37:07;0.97;;;0.97;;
11933;SDS011;6026;48.784;9.198;2023-06-22T05:39:34;0.80;;;0.80;;
11933;SDS011;6026;48.784;9.198;2023-06-22T05:42:03;0.60;;;0.60;;
11933;SDS011;6026;48.784;9.198;2023-06-22T05:44:30;0.70;;;0.70;;
11933;SDS011;6026;48.784;9.198;2023-06-22T05:46:55;0.80;;;0.80;;
11933;SDS011;6026;48.784;9.198;2023-06-22T05:49:21;0.77;;;0.77;;
11933;SDS011;6026;48.784;9.198;2023-06-22T05:51:47;0.63;;;0.63;;
11933;SDS011;6026;48.784;9.198;2023-06-22T05:54:13;0.70;;;0.70;;
11933;SDS011;6026;48.784;9.198;2023-06-22T05:56:40;0.60;;;0.60;;
11933;SDS011;6026;48.784;9.198;2023-06-22T05:59:06;0.75;;;0.75;;
11933;SDS011;6026;48.784;9.198;2023-06-22T06:01:31;0.80;;;0.80;;
11933;SDS011;6026;48.784;9.198;2023-06-22T06:03:59;0.70;;;0.70;;
11933;SDS011;6026;48.784;9.198;2023-06-22T06:06:25;0.80;;;0.80;;
11933;SDS011;6026;48.784;9.198;2023-06-22T06:08:53;0.88;;;0.88;;
11933;SDS011;6026;48.784;9.198;2023-06-22T06:11:19;0.77;;;0.77;;
11933;SDS011;6026;48.784;9.198;2023-06-22T06:13:44;0.90;;;0.90;;
11933;SDS011;6026;48.784;9.198;2023-06-22T06:16:10;0.80;;;0.80;;
11933;SDS011;6026;48.784;9.198;2023-06-22T06:18:36;0.73;;;0.73;;
11933;SDS011;6026;48.784;9.198;2023-06-22T06:21:02;0.73;;;0.73;;
11933;SDS011;6026;48.784;9.198;2023-06-22T06:23:28;0.80;;;0.80;;
11933;SDS011;6026;48.784;9.198;2023-06-22T06:25:53;0.80;;;0.80;;
11933;SDS011;6026;48.784;9.198;2023-06-22T06:28:19;0.80;;;0.80;;
11933;SDS011;6026;48.784;9.198;2023-06-22T06:30:45;0.90;;;0.90;;
11933;SDS011;6026;48.784;9.198;2023-06-22T06:33:12;0.90;;;0.90;;
11933;SDS011;6026;48.784;9.198;2023-06-22T06:35:38;1.00;;;1.00;;
11933;SDS011;6026;48.784;9.198;2023-06-22T06:38:03;1.00;;;1.00;;
11933;SDS011;6026;48.784;9.198;2023-06-22T06:40:29;1.10;;;1.10;;
11933;SDS011;6026;48.784;9.198;2023-06-22T06:42:55;1.17;;;1.17;;
11933;SDS011;6026;48.784;9.198;2023-06-22T06:45:21;1.10;;;1.10;;
11933;SDS011;6026;48.784;9.198;2023-06-22T06:47:48;1.30;;;1.30;;
11933;SDS011;6026;48.784;9.198;2023-06-22T06:50:14;1.30;;;1.30;;
11933;SDS011;6026;48.784;9.198;2023-06-22T06:52:40;1.30;;;1.30;;
11933;SDS011;6026;48.784;9.198;2023-06-22T06:55:06;1.40;;;1.40;;
11933;SDS011;6026;48.784;9.198;2023-06-22T06:57:35;1.52;;;1.52;;
11933;SDS011;6026;48.784;9.198;2023-06-22T07:00:02;1.50;;;1.50;;
11933;SDS011;6026;48.784;9.198;2023-06-22T07:02:34;1.60;;;1.60;;
11933;SDS011;6026;48.784;9.198;2023-06-22T07:04:59;1.60;;;1.60;;
11933;SDS011;6026;48.784;9.198;2023-06-22T07:07:25;1.60;;;1.60;;
11933;SDS011;6026;48.784;9.198;2023-06-22T07:09:51;1.60;;;1.60;;
11933;SDS011;6026;48.784;9.198;2023-06-22T07:12:16;1.77;;;1.70;;
11933;SDS011;6026;48.784;9.198;2023-06-22T07:14:42;1.80;;;1.70;;
11933;SDS011;6026;48.784;9.198;2023-06-22T07:17:07;1.80;;;1.70;;
11933;SDS011;6026;48.784;9.198;2023-06-22T07:19:33;1.92;;;1.83;;
11933;SDS011;6026;48.784;9.198;2023-06-22T07:21:58;1.92;;;1.83;;
11933;SDS011;6026;48.784;9.198;2023-06-22T07:24:24;1.65;;;1.65;;
11933;SDS011;6026;48.784;9.198;2023-06-22T07:26:50;1.60;;;1.60;;
11933;SDS011;6026;48.784;9.198;2023-06-22T07:29:19;1.40;;;1.40;;
11933;SDS011;6026;48.784;9.198;2023-06-22T07:31:46;1.20;;;1.20;;
11933;SDS011;6026;48.784;9.198;2023-06-22T07:34:11;1.20;;;1.20;;
11933;SDS011;6026;48.784;9.198;2023-06-22T07:36:37;1.10;;;1.10;;
11933;SDS011;6026;48.784;9.198;2023-06-22T07:39:03;1.10;;;1.10;;
11933;SDS011;6026;48.784;9.198;2023-06-22T07:41:29;1.10;;;1.10;;
11933;SDS011;6026;48.784;9.198;2023-06-22T07:43:55;1.10;;;1.10;;
11933;SDS011;6026;48.784;9.198;2023-06-22T07:46:21;1.08;;;1.08;;
11933;SDS011;6026;48.784;9.198;2023-06-22T07:48:47;1.00;;;1.00;;
11933;SDS011;6026;48.784;9.198;2023-06-22T07:51:12;1.00;;;1.00;;
11933;SDS011;6026;48.784;9.198;2023-06-22T07:53:39;1.00;;;1.00;;
11933;SDS011;6026;48.784;9.198;2023-06-22T07:56:12;1.13;;;1.13;;
11933;SDS011;6026;48.784;9.198;2023-06-22T07:58:38;1.00;;;1.00;;
11933;SDS011;6026;48.784;9.198;2023-06-22T08:01:03;1.00;;;1.00;;
11933;SDS011;6026;48.784;9.198;2023-06-22T08:03:29;1.00;;;1.00;;
11933;SDS011;6026;48.784;9.198;2023-06-22T08:05:55;1.10;;;1.10;;
11933;SDS011;6026;48.784;9.198;2023-06-22T08:08:21;1.10;;;1.10;;
11933;SDS011;6026;48.784;9.198;2023-06-22T08:10:46;1.10;;;1.10;;
11933;SDS011;6026;48.784;9.198;2023-06-22T08:13:12;1.10;;;1.10;;
11933;SDS011;6026;48.784;9.198;2023-06-22T08:15:37;1.08;;;1.08;;
11933;SDS011;6026;48.784;9.198;2023-06-22T08:18:03;1.10;;;1.10;;
11933;SDS011;6026;48.784;9.198;2023-06-22T08:20:28;1.10;;;1.10;;
11933;SDS011;6026;48.784;9.198;2023-06-22T08:22:55;1.20;;;1.20;;
11933;SDS011;6026;48.784;9.198;2023-06-22T08:25:23;1.10;;;1.10;;
11933;SDS011;6026;48.784;9.198;2023-06-22T08:27:48;1.20;;;1.20;;
11933;SDS011;6026;48.784;9.198;2023-06-22T08:30:14;1.10;;;1.10;;
11933;SDS011;6026;48.784;9.198;2023-06-22T08:32:40;1.10;;;1.10;;
11933;SDS011;6026;48.784;9.198;2023-06-22T08:35:06;1.10;;;1.10;;
11933;SDS011;6026;48.784;9.198;2023-06-22T08:37:33;1.10;;;1.10;;
11933;SDS011;6026;48.784;9.198;2023-06-22T08:40:00;1.10;;;1.10;;
11933;SDS011;6026;48.784;9.198;2023-06-22T08:42:30;1.10;;;1.10;;
11933;SDS011;6026;48.784;9.198;2023-06-22T08:44:56;1.10;;;1.10;;
11933;SDS011;6026;48.784;9.198;2023-06-22T08:47:22;1.10;;;1.10;;
11933;SDS011;6026;48.784;9.198;2023-06-22T08:49:48;1.10;;;1.10;;
11933;SDS011;6026;48.784;9.198;2023-06-22T08:52:14;1.10;;;1.10;;
11933;SDS011;6026;48.784;9.198;2023-06-22T08:54:39;1.20;;;1.20;;
11933;SDS011;6026;48.784;9.198;2023-06-22T08:57:05;1.20;;;1.20;;
11933;SDS011;6026;48.784;9.198;2023-06-22T08:59:31;1.20;;;1.20;;
11933;SDS011;6026;48.784;9.198;2023-06-22T09:01:57;1.20;;;1.20;;
11933;SDS011;6026;48.784;9.198;2023-06-22T09:04:22;1.30;;;1.30;;
11933;SDS011;6026;48.784;9.198;2023-06-22T09:06:48;1.30;;;1.30;;
11933;SDS011;6026;48.784;9.198;2023-06-22T09:09:15;1.30;;;1.30;;
11933;SDS011;6026;48.784;9.198;2023-06-22T09:11:41;1.30;;;1.30;;
11933;SDS011;6026;48.784;9.198;2023-06-22T09:14:07;1.30;;;1.30;;
11933;SDS011;6026;48.784;9.198;2023-06-22T09:16:33;1.20;;;1.20;;
11933;SDS011;6026;48.784;9.198;2023-06-22T09:18:59;1.20;;;1.20;;
11933;SDS011;6026;48.784;9.198;2023-06-22T09:21:25;1.20;;;1.20;;
11933;SDS011;6026;48.784;9.198;2023-06-22T09:23:50;1.20;;;1.20;;
11933;SDS011;6026;48.784;9.198;2023-06-22T09:26:17;1.30;;;1.30;;
11933;SDS011;6026;48.784;9.198;2023-06-22T09:28:43;1.40;;;1.40;;
11933;SDS011;6026;48.784;9.198;2023-06-22T09:31:08;1.50;;;1.50;;
11933;SDS011;6026;48.784;9.198;2023-06-22T09:33:35;1.60;;;1.60;;
11933;SDS011;6026;48.784;9.198;2023-06-22T09:36:01;1.80;;;1.70;;
11933;SDS011;6026;48.784;9.198;2023-06-22T09:38:26;1.60;;;1.60;;
11933;SDS011;6026;48.784;9.198;2023-06-22T09:40:52;1.60;;;1.60;;
11933;SDS011;6026;48.784;9.198;2023-06-22T09:43:17;1.77;;;1.70;;
11933;SDS011;6026;48.784;9.198;2023-06-22T09:45:43;1.80;;;1.70;;
11933;SDS011;6026;48.784;9.198;2023-06-22T09:48:09;1.90;;;1.80;;
11933;SDS011;6026;48.784;9.198;2023-06-22T09:50:37;1.88;;;1.77;;
11933;SDS011;6026;48.784;9.198;2023-06-22T09:53:15;2.10;;;2.00;;
11933;SDS011;6026;48.784;9.198;2023-06-22T09:55:41;1.90;;;1.80;;
11933;SDS011;6026;48.784;9.198;2023-06-22T09:58:06;1.88;;;1.77;;
11933;SDS011;6026;48.784;9.198;2023-06-22T10:00:33;1.90;;;1.80;;
11933;SDS011;6026;48.784;9.198;2023-06-22T10:02:59;1.67;;;1.67;;
11933;SDS011;6026;48.784;9.198;2023-06-22T10:05:24;1.60;;;1.60;;
11933;SDS011;6026;48.784;9.198;2023-06-22T10:07:50;1.50;;;1.50;;
11933;SDS011;6026;48.784;9.198;2023-06-22T10:10:15;1.50;;;1.50;;
11933;SDS011;6026;48.784;9.198;2023-06-22T10:12:42;1.30;;;1.30;;
11933;SDS011;6026;48.784;9.198;2023-06-22T10:15:12;1.30;;;1.30;;
11933;SDS011;6026;48.784;9.198;2023-06-22T10:17:37;1.20;;;1.20;;
11933;SDS011;6026;48.784;9.198;2023-06-22T10:20:04;1.20;;;1.20;;
11933;SDS011;6026;48.784;9.198;2023-06-22T10:22:43;1.20;;;1.20;;
11933;SDS011;6026;48.784;9.198;2023-06-22T10:25:10;1.20;;;1.20;;
11933;SDS011;6026;48.784;9.198;2023-06-22T10:27:36;1.20;;;1.20;;
11933;SDS011;6026;48.784;9.198;2023-06-22T10:30:05;1.20;;;1.20;;
11933;SDS011;6026;48.784;9.198;2023-06-22T10:32:31;1.10;;;1.10;;
11933;SDS011;6026;48.784;9.198;2023-06-22T10:34:57;1.20;;;1.20;;
11933;SDS011;6026;48.784;9.198;2023-06-22T10:37:23;1.20;;;1.20;;
11933;SDS011;6026;48.784;9.198;2023-06-22T10:39:49;1.10;;;1.10;;
11933;SDS011;6026;48.784;9.198;2023-06-22T10:42:14;1.10;;;1.10;;
11933;SDS011;6026;48.784;9.198;2023-06-22T10:44:40;1.10;;;1.10;;
11933;SDS011;6026;48.784;9.198;2023-06-22T10:47:08;1.20;;;1.20;;
11933;SDS011;6026;48.784;9.198;2023-06-22T10:49:33;1.10;;;1.10;;
11933;SDS011;6026;48.784;9.198;2023-06-22T10:51:59;1.10;;;1.10;;
11933;SDS011;6026;48.784;9.198;2023-06-22T10:54:26;1.10;;;1.10;;
11933;SDS011;6026;48.784;9.198;2023-06-22T10:56:51;1.10;;;1.10;;
11933;SDS011;6026;48.784;9.198;2023-06-22T10:59:17;1.20;;;1.20;;
11933;SDS011;6026;48.784;9.198;2023-06-22T11:01:42;1.10;;;1.10;;
11933;SDS011;6026;48.784;9.198;2023-06-22T11:04:08;1.10;;;1.10;;
11933;SDS011;6026;48.784;9.198;2023-06-22T11:06:34;1.10;;;1.10;;
11933;SDS011;6026;48.784;9.198;2023-06-22T11:08:59;1.10;;;1.10;;
11933;SDS011;6026;48.784;9.198;2023-06-22T11:11:25;1.10;;;1.10;;
11933;SDS011;6026;48.784;9.198;2023-06-22T11:13:52;1.10;;;1.10;;
11933;SDS011;6026;48.784;9.198;2023-06-22T11:16:18;1.00;;;1.00;;
11933;SDS011;6026;48.784;9.198;2023-06-22T11:18:43;1.00;;;1.00;;
11933;SDS011;6026;48.784;9.198;2023-06-22T11:21:09;1.10;;;1.10;;
11933;SDS011;6026;48.784;9.198;2023-06-22T11:23:34;1.05;;;1.05;;
11933;SDS011;6026;48.784;9.198;2023-06-22T11:26:00;1.10;;;1.10;;
11933;SDS011;6026;48.784;9.198;2023-06-22T11:28:25;1.10;;;1.10;;
11933;SDS011;6026;48.784;9.198;2023-06-22T11:30:51;1.00;;;1.00;;
11933;SDS011;6026;48.784;9.198;2023-06-22T11:33:17;1.20;;;1.20;;
11933;SDS011;6026;48.784;9.198;2023-06-22T11:35:42;1.10;;;1.10;;
11933;SDS011;6026;48.784;9.198;2023-06-22T11:38:08;1.10;;;1.10;;
11933;SDS011;6026;48.784;9.198;2023-06-22T11:40:33;1.10;;;1.10;;
11933;SDS011;6026;48.784;9.198;2023-06-22T11:42:59;1.02;;;1.02;;
11933;SDS011;6026;48.784;9.198;2023-06-22T11:45:24;1.10;;;1.10;;
11933;SDS011;6026;48.784;9.198;2023-06-22T11:47:50;1.10;;;1.10;;
11933;SDS011;6026;48.784;9.198;2023-06-22T11:50:16;1.10;;;1.10;;
11933;SDS011;6026;48.784;9.198;2023-06-22T11:52:41;1.10;;;1.10;;
11933;SDS011;6026;48.784;9.198;2023-06-22T11:55:07;1.10;;;1.10;;
11933;SDS011;6026;48.784;9.198;2023-06-22T11:57:33;1.10;;;1.10;;
11933;SDS011;6026;48.784;9.198;2023-06-22T12:00:01;1.10;;;1.10;;
11933;SDS011;6026;48.784;9.198;2023-06-22T12:02:31;1.10;;;1.10;;
11933;SDS011;6026;48.784;9.198;2023-06-22T12:04:57;1.10;;;1.10;;
11933;SDS011;6026;48.784;9.198;2023-06-22T12:07:23;1.13;;;1.13;;
11933;SDS011;6026;48.784;9.198;2023-06-22T12:09:49;1.10;;;1.10;;
11933;SDS011;6026;48.784;9.198;2023-06-22T12:12:14;1.10;;;1.10;;
11933;SDS011;6026;48.784;9.198;2023-06-22T12:14:40;1.10;;;1.10;;
11933;SDS011;6026;48.784;9.198;2023-06-22T12:17:05;1.10;;;1.10;;
11933;SDS011;6026;48.784;9.198;2023-06-22T12:19:31;1.10;;;1.10;;
11933;SDS011;6026;48.784;9.198;2023-06-22T12:21:57;1.10;;;1.10;;
11933;SDS011;6026;48.784;9.198;2023-06-22T12:24:22;1.10;;;1.10;;
11933;SDS011;6026;48.784;9.198;2023-06-22T12:26:48;1.10;;;1.10;;
11933;SDS011;6026;48.784;9.198;2023-06-22T12:29:14;1.10;;;1.10;;
11933;SDS011;6026;48.784;9.198;2023-06-22T12:31:39;1.08;;;1.08;;
11933;SDS011;6026;48.784;9.198;2023-06-22T12:34:06;1.10;;;1.10;;
11933;SDS011;6026;48.784;9.198;2023-06-22T12:36:32;1.10;;;1.10;;
11933;SDS011;6026;48.784;9.198;2023-06-22T12:38:57;1.08;;;1.08;;
11933;SDS011;6026;48.784;9.198;2023-06-22T12:41:23;1.10;;;1.10;;
11933;SDS011;6026;48.784;9.198;2023-06-22T12:43:49;1.05;;;1.05;;
11933;SDS011;6026;48.784;9.198;2023-06-22T12:46:14;1.10;;;1.10;;
11933;SDS011;6026;48.784;9.198;2023-06-22T12:48:40;1.10;;;1.10;;
11933;SDS011;6026;48.784;9.198;2023-06-22T12:51:07;1.05;;;1.05;;
11933;SDS011;6026;48.784;9.198;2023-06-22T12:53:34;1.10;;;1.10;;
11933;SDS011;6026;48.784;9.198;2023-06-22T12:56:00;1.08;;;1.08;;
11933;SDS011;6026;48.784;9.198;2023-06-22T12:58:25;1.10;;;1.10;;
11933;SDS011;6026;48.784;9.198;2023-06-22T13:00:51;1.00;;;1.00;;
11933;SDS011;6026;48.784;9.198;2023-06-22T13:03:16;1.10;;;1.10;;
11933;SDS011;6026;48.784;9.198;2023-06-22T13:05:42;1.08;;;1.08;;
11933;SDS011;6026;48.784;9.198;2023-06-22T13:08:07;1.10;;;1.10;;
11933;SDS011;6026;48.784;9.198;2023-06-22T13:10:33;1.10;;;1.10;;
11933;SDS011;6026;48.784;9.198;2023-06-22T13:12:59;1.10;;;1.10;;
11933;SDS011;6026;48.784;9.198;2023-06-22T13:15:28;1.10;;;1.10;;
11933;SDS011;6026;48.784;9.198;2023-06-22T13:17:54;1.10;;;1.10;;
11933;SDS011;6026;48.784;9.198;2023-06-22T13:20:20;1.10;;;1.10;;
11933;SDS011;6026;48.784;9.198;2023-06-22T13:22:46;1.10;;;1.10;;
11933;SDS011;6026;48.784;9.198;2023-06-22T13:25:12;2.03;;;1.92;;
11933;SDS011;6026;48.784;9.198;2023-06-22T13:27:39;1.10;;;1.10;;
11933;SDS011;6026;48.784;9.198;2023-06-22T13:30:05;1.20;;;1.20;;
11933;SDS011;6026;48.784;9.198;2023-06-22T13:32:31;1.17;;;1.17;;
11933;SDS011;6026;48.784;9.198;2023-06-22T13:34:57;1.20;;;1.20;;
11933;SDS011;6026;48.784;9.198;2023-06-22T13:37:22;1.10;;;1.10;;
11933;SDS011;6026;48.784;9.198;2023-06-22T13:39:48;1.10;;;1.10;;
11933;SDS011;6026;48.784;9.198;2023-06-22T13:42:14;1.10;;;1.10;;
11933;SDS011;6026;48.784;9.198;2023-06-22T13:44:39;1.10;;;1.10;;
11933;SDS011;6026;48.784;9.198;2023-06-22T13:47:05;1.05;;;1.05;;
11933;SDS011;6026;48.784;9.198;2023-06-22T13:49:31;1.17;;;1.17;;
11933;SDS011;6026;48.784;9.198;2023-06-22T13:51:57;1.15;;;1.15;;
11933;SDS011;6026;48.784;9.198;2023-06-22T13:54:22;1.10;;;1.10;;
11933;SDS011;6026;48.784;9.198;2023-06-22T13:56:48;1.10;;;1.10;;
11933;SDS011;6026;48.784;9.198;2023-06-22T13:59:13;1.10;;;1.10;;
11933;SDS011;6026;48.784;9.198;2023-06-22T14:01:39;1.10;;;1.10;;
11933;SDS011;6026;48.784;9.198;2023-06-22T14:04:06;1.10;;;1.10;;
11933;SDS011;6026;48.784;9.198;2023-06-22T14:06:31;1.17;;;1.17;;
11933;SDS011;6026;48.784;9.198;2023-06-22T14:08:57;1.17;;;1.17;;
11933;SDS011;6026;48.784;9.198;2023-06-22T14:11:22;1.10;;;1.10;;
11933;SDS011;6026;48.784;9.198;2023-06-22T14:13:49;1.17;;;1.17;;
11933;SDS011;6026;48.784;9.198;2023-06-22T14:16:15;1.20;;;1.20;;
11933;SDS011;6026;48.784;9.198;2023-06-22T14:18:40;1.20;;;1.20;;
11933;SDS011;6026;48.784;9.198;2023-06-22T14:21:06;1.13;;;1.13;;
11933;SDS011;6026;48.784;9.198;2023-06-22T14:23:32;1.10;;;1.10;;
11933;SDS011;6026;48.784;9.198;2023-06-22T14:25:57;1.10;;;1.10;;
11933;SDS011;6026;48.784;9.198;2023-06-22T14:28:23;1.13;;;1.13;;
11933;SDS011;6026;48.784;9.198;2023-06-22T14:30:48;1.10;;;1.10;;
11933;SDS011;6026;48.784;9.198;2023-06-22T14:33:14;1.20;;;1.20;;
11933;SDS011;6026;48.784;9.198;2023-06-22T14:35:40;1.10;;;1.10;;
11933;SDS011;6026;48.784;9.198;2023-06-22T14:38:06;1.20;;;1.20;;
11933;SDS011;6026;48.784;9.198;2023-06-22T14:40:32;1.10;;;1.10;;
11933;SDS011;6026;48.784;9.198;2023-06-22T14:42:57;1.10;;;1.10;;
11933;SDS011;6026;48.784;9.198;2023-06-22T14:45:23;1.10;;;1.10;;
11933;SDS011;6026;48.784;9.198;2023-06-22T14:47:49;1.10;;;1.10;;
11933;SDS011;6026;48.784;9.198;2023-06-22T14:50:15;1.20;;;1.20;;
11933;SDS011;6026;48.784;9.198;2023-06-22T14:52:40;1.10;;;1.10;;
11933;SDS011;6026;48.784;9.198;2023-06-22T14:55:06;1.10;;;1.10;;
11933;SDS011;6026;48.784;9.198;2023-06-22T14:57:32;1.15;;;1.15;;
11933;SDS011;6026;48.784;9.198;2023-06-22T14:59:58;1.17;;;1.17;;